sensor_id;sensor_type;location;lat;lon;timestamp;P1;durP1;ratioP1;P2;durP2;ratioP2
19456;SDS011;9867;48.094;11.478;2022-09-09T00:01:15;1.40;;;0.83;;
19456;SDS011;9867;48.094;11.478;2022-09-09T00:03:56;1.90;;;1.27;;
19456;SDS011;9867;48.094;11.478;2022-09-09T00:06:28;4.90;;;1.43;;
19456;SDS011;9867;48.094;11.478;2022-09-09T00:09:02;4.00;;;1.23;;
19456;SDS011;9867;48.094;11.478;2022-09-09T00:11:36;1.83;;;1.20;;
19456;SDS011;9867;48.094;11.478;2022-09-09T00:14:12;2.77;;;1.30;;
19456;SDS011;9867;48.094;11.478;2022-09-09T00:16:47;3.10;;;1.13;;
19456;SDS011;9867;48.094;11.478;2022-09-09T00:19:22;2.63;;;1.30;;
19456;SDS011;9867;48.094;11.478;2022-09-09T00:21:58;1.70;;;1.13;;
19456;SDS011;9867;48.094;11.478;2022-09-09T00:24:34;4.10;;;1.50;;
19456;SDS011;9867;48.094;11.478;2022-09-09T00:27:11;1.60;;;1.13;;
19456;SDS011;9867;48.094;11.478;2022-09-09T00:29:47;2.63;;;1.27;;
19456;SDS011;9867;48.094;11.478;2022-09-09T00:32:20;2.10;;;1.30;;
19456;SDS011;9867;48.094;11.478;2022-09-09T00:34:49;1.23;;;1.13;;
19456;SDS011;9867;48.094;11.478;2022-09-09T00:37:20;2.30;;;1.23;;
19456;SDS011;9867;48.094;11.478;2022-09-09T00:39:54;2.93;;;1.40;;
19456;SDS011;9867;48.094;11.478;2022-09-09T00:42:26;3.70;;;1.17;;
19456;SDS011;9867;48.094;11.478;2022-09-09T00:45:15;2.83;;;0.97;;
19456;SDS011;9867;48.094;11.478;2022-09-09T00:47:54;3.30;;;1.17;;
19456;SDS011;9867;48.094;11.478;2022-09-09T00:50:29;1.83;;;1.30;;
19456;SDS011;9867;48.094;11.478;2022-09-09T00:53:08;2.33;;;1.47;;
19456;SDS011;9867;48.094;11.478;2022-09-09T00:56:04;6.10;;;1.40;;
19456;SDS011;9867;48.094;11.478;2022-09-09T00:58:40;1.97;;;1.33;;
19456;SDS011;9867;48.094;11.478;2022-09-09T01:01:10;2.40;;;1.30;;
19456;SDS011;9867;48.094;11.478;2022-09-09T01:03:41;1.50;;;1.30;;
19456;SDS011;9867;48.094;11.478;2022-09-09T01:06:15;1.70;;;1.60;;
19456;SDS011;9867;48.094;11.478;2022-09-09T01:08:53;1.83;;;1.20;;
19456;SDS011;9867;48.094;11.478;2022-09-09T01:11:33;2.60;;;1.10;;
19456;SDS011;9867;48.094;11.478;2022-09-09T01:14:13;1.73;;;1.10;;
19456;SDS011;9867;48.094;11.478;2022-09-09T01:16:47;1.27;;;1.17;;
19456;SDS011;9867;48.094;11.478;2022-09-09T01:19:18;1.77;;;1.10;;
19456;SDS011;9867;48.094;11.478;2022-09-09T01:21:55;1.30;;;1.20;;
19456;SDS011;9867;48.094;11.478;2022-09-09T01:24:35;2.20;;;1.10;;
19456;SDS011;9867;48.094;11.478;2022-09-09T01:27:16;4.03;;;1.63;;
19456;SDS011;9867;48.094;11.478;2022-09-09T01:29:47;1.30;;;1.20;;
19456;SDS011;9867;48.094;11.478;2022-09-09T01:35:10;2.63;;;1.30;;
19456;SDS011;9867;48.094;11.478;2022-09-09T01:37:41;1.93;;;1.20;;
19456;SDS011;9867;48.094;11.478;2022-09-09T01:40:09;1.57;;;1.27;;
19456;SDS011;9867;48.094;11.478;2022-09-09T01:42:39;2.93;;;1.30;;
19456;SDS011;9867;48.094;11.478;2022-09-09T01:45:07;2.60;;;1.37;;
19456;SDS011;9867;48.094;11.478;2022-09-09T01:47:36;2.30;;;1.20;;
19456;SDS011;9867;48.094;11.478;2022-09-09T01:50:16;3.37;;;1.30;;
19456;SDS011;9867;48.094;11.478;2022-09-09T01:52:45;1.30;;;1.20;;
19456;SDS011;9867;48.094;11.478;2022-09-09T01:55:19;2.03;;;1.27;;
19456;SDS011;9867;48.094;11.478;2022-09-09T01:58:08;3.10;;;1.13;;
19456;SDS011;9867;48.094;11.478;2022-09-09T02:00:49;1.40;;;1.30;;
19456;SDS011;9867;48.094;11.478;2022-09-09T02:03:31;1.97;;;1.00;;
19456;SDS011;9867;48.094;11.478;2022-09-09T02:06:12;2.50;;;1.50;;
19456;SDS011;9867;48.094;11.478;2022-09-09T02:08:52;2.50;;;1.43;;
19456;SDS011;9867;48.094;11.478;2022-09-09T02:11:24;3.20;;;1.23;;
19456;SDS011;9867;48.094;11.478;2022-09-09T02:14:14;5.60;;;1.47;;
19456;SDS011;9867;48.094;11.478;2022-09-09T02:16:47;1.83;;;1.00;;
19456;SDS011;9867;48.094;11.478;2022-09-09T02:19:23;1.90;;;1.07;;
19456;SDS011;9867;48.094;11.478;2022-09-09T02:22:09;2.27;;;1.43;;
19456;SDS011;9867;48.094;11.478;2022-09-09T02:24:38;2.03;;;1.27;;
19456;SDS011;9867;48.094;11.478;2022-09-09T02:27:14;1.40;;;1.30;;
19456;SDS011;9867;48.094;11.478;2022-09-09T02:29:46;2.90;;;1.33;;
19456;SDS011;9867;48.094;11.478;2022-09-09T02:32:17;4.20;;;1.70;;
19456;SDS011;9867;48.094;11.478;2022-09-09T02:34:51;2.10;;;1.40;;
19456;SDS011;9867;48.094;11.478;2022-09-09T02:37:24;1.97;;;1.33;;
19456;SDS011;9867;48.094;11.478;2022-09-09T02:39:56;2.33;;;1.27;;
19456;SDS011;9867;48.094;11.478;2022-09-09T02:42:24;3.80;;;1.43;;
19456;SDS011;9867;48.094;11.478;2022-09-09T02:44:55;3.03;;;1.40;;
19456;SDS011;9867;48.094;11.478;2022-09-09T02:47:25;1.70;;;1.30;;
19456;SDS011;9867;48.094;11.478;2022-09-09T02:50:03;1.80;;;1.30;;
19456;SDS011;9867;48.094;11.478;2022-09-09T02:52:40;2.33;;;1.30;;
19456;SDS011;9867;48.094;11.478;2022-09-09T02:55:22;1.73;;;1.40;;
19456;SDS011;9867;48.094;11.478;2022-09-09T02:57:55;3.03;;;1.53;;
19456;SDS011;9867;48.094;11.478;2022-09-09T03:00:28;1.83;;;1.53;;
19456;SDS011;9867;48.094;11.478;2022-09-09T03:03:00;2.53;;;1.37;;
19456;SDS011;9867;48.094;11.478;2022-09-09T03:05:32;1.43;;;1.13;;
19456;SDS011;9867;48.094;11.478;2022-09-09T03:08:00;1.63;;;1.53;;
19456;SDS011;9867;48.094;11.478;2022-09-09T03:10:29;4.30;;;1.40;;
19456;SDS011;9867;48.094;11.478;2022-09-09T03:12:57;1.97;;;1.13;;
19456;SDS011;9867;48.094;11.478;2022-09-09T03:15:30;1.30;;;1.20;;
19456;SDS011;9867;48.094;11.478;2022-09-09T03:17:58;1.60;;;1.30;;
19456;SDS011;9867;48.094;11.478;2022-09-09T03:20:28;1.37;;;1.17;;
19456;SDS011;9867;48.094;11.478;2022-09-09T03:22:58;1.60;;;1.07;;
19456;SDS011;9867;48.094;11.478;2022-09-09T03:25:29;2.13;;;1.57;;
19456;SDS011;9867;48.094;11.478;2022-09-09T03:27:58;2.67;;;1.50;;
19456;SDS011;9867;48.094;11.478;2022-09-09T03:30:27;1.73;;;1.53;;
19456;SDS011;9867;48.094;11.478;2022-09-09T03:32:57;1.27;;;1.20;;
19456;SDS011;9867;48.094;11.478;2022-09-09T03:35:29;2.43;;;1.40;;
19456;SDS011;9867;48.094;11.478;2022-09-09T03:37:58;2.37;;;1.20;;
19456;SDS011;9867;48.094;11.478;2022-09-09T03:40:29;1.47;;;1.10;;
19456;SDS011;9867;48.094;11.478;2022-09-09T03:42:58;3.60;;;1.53;;
19456;SDS011;9867;48.094;11.478;2022-09-09T03:45:26;1.30;;;1.20;;
19456;SDS011;9867;48.094;11.478;2022-09-09T03:47:54;2.80;;;1.47;;
19456;SDS011;9867;48.094;11.478;2022-09-09T03:50:25;1.20;;;1.10;;
19456;SDS011;9867;48.094;11.478;2022-09-09T03:52:53;2.03;;;1.50;;
19456;SDS011;9867;48.094;11.478;2022-09-09T03:55:21;2.70;;;1.50;;
19456;SDS011;9867;48.094;11.478;2022-09-09T03:57:49;2.47;;;1.23;;
19456;SDS011;9867;48.094;11.478;2022-09-09T04:00:18;2.93;;;1.53;;
19456;SDS011;9867;48.094;11.478;2022-09-09T04:02:51;1.67;;;1.20;;
19456;SDS011;9867;48.094;11.478;2022-09-09T04:05:20;3.57;;;1.57;;
19456;SDS011;9867;48.094;11.478;2022-09-09T04:07:49;5.83;;;1.33;;
19456;SDS011;9867;48.094;11.478;2022-09-09T04:10:18;2.00;;;1.20;;
19456;SDS011;9867;48.094;11.478;2022-09-09T04:12:47;1.90;;;1.20;;
19456;SDS011;9867;48.094;11.478;2022-09-09T04:15:15;1.70;;;1.10;;
19456;SDS011;9867;48.094;11.478;2022-09-09T04:17:45;1.33;;;1.17;;
19456;SDS011;9867;48.094;11.478;2022-09-09T04:20:13;2.07;;;1.40;;
19456;SDS011;9867;48.094;11.478;2022-09-09T04:22:42;2.90;;;1.33;;
19456;SDS011;9867;48.094;11.478;2022-09-09T04:25:11;3.27;;;1.47;;
19456;SDS011;9867;48.094;11.478;2022-09-09T04:27:39;2.57;;;1.30;;
19456;SDS011;9867;48.094;11.478;2022-09-09T04:30:09;1.90;;;1.17;;
19456;SDS011;9867;48.094;11.478;2022-09-09T04:32:39;2.27;;;1.20;;
19456;SDS011;9867;48.094;11.478;2022-09-09T04:35:08;1.80;;;1.00;;
19456;SDS011;9867;48.094;11.478;2022-09-09T04:37:36;5.53;;;1.57;;
19456;SDS011;9867;48.094;11.478;2022-09-09T04:40:04;1.67;;;1.37;;
19456;SDS011;9867;48.094;11.478;2022-09-09T04:42:37;2.03;;;1.57;;
19456;SDS011;9867;48.094;11.478;2022-09-09T04:45:12;2.43;;;1.30;;
19456;SDS011;9867;48.094;11.478;2022-09-09T04:47:41;2.93;;;1.33;;
19456;SDS011;9867;48.094;11.478;2022-09-09T04:50:09;1.80;;;1.30;;
19456;SDS011;9867;48.094;11.478;2022-09-09T04:52:38;1.60;;;1.10;;
19456;SDS011;9867;48.094;11.478;2022-09-09T04:55:07;1.43;;;1.00;;
19456;SDS011;9867;48.094;11.478;2022-09-09T04:57:37;2.20;;;1.43;;
19456;SDS011;9867;48.094;11.478;2022-09-09T05:00:06;1.83;;;1.00;;
19456;SDS011;9867;48.094;11.478;2022-09-09T05:02:38;2.13;;;1.37;;
19456;SDS011;9867;48.094;11.478;2022-09-09T05:05:08;2.50;;;1.20;;
19456;SDS011;9867;48.094;11.478;2022-09-09T05:07:38;3.90;;;1.30;;
19456;SDS011;9867;48.094;11.478;2022-09-09T05:10:06;3.10;;;1.67;;
19456;SDS011;9867;48.094;11.478;2022-09-09T05:12:34;2.50;;;1.40;;
19456;SDS011;9867;48.094;11.478;2022-09-09T05:15:05;3.43;;;1.40;;
19456;SDS011;9867;48.094;11.478;2022-09-09T05:17:33;2.33;;;1.10;;
19456;SDS011;9867;48.094;11.478;2022-09-09T05:20:03;3.83;;;1.83;;
19456;SDS011;9867;48.094;11.478;2022-09-09T05:22:35;1.30;;;1.20;;
19456;SDS011;9867;48.094;11.478;2022-09-09T05:25:04;1.63;;;1.33;;
19456;SDS011;9867;48.094;11.478;2022-09-09T05:27:33;3.20;;;1.23;;
19456;SDS011;9867;48.094;11.478;2022-09-09T05:30:01;1.57;;;1.20;;
19456;SDS011;9867;48.094;11.478;2022-09-09T05:32:32;1.50;;;1.30;;
19456;SDS011;9867;48.094;11.478;2022-09-09T05:35:00;1.60;;;1.30;;
19456;SDS011;9867;48.094;11.478;2022-09-09T05:37:29;2.43;;;1.00;;
19456;SDS011;9867;48.094;11.478;2022-09-09T05:39:58;1.90;;;1.40;;
19456;SDS011;9867;48.094;11.478;2022-09-09T05:42:29;2.97;;;1.40;;
19456;SDS011;9867;48.094;11.478;2022-09-09T05:44:59;2.57;;;1.57;;
19456;SDS011;9867;48.094;11.478;2022-09-09T05:47:27;2.23;;;1.43;;
19456;SDS011;9867;48.094;11.478;2022-09-09T05:49:56;1.83;;;1.30;;
19456;SDS011;9867;48.094;11.478;2022-09-09T05:52:24;2.50;;;1.43;;
19456;SDS011;9867;48.094;11.478;2022-09-09T05:54:54;1.20;;;1.10;;
19456;SDS011;9867;48.094;11.478;2022-09-09T05:57:23;2.57;;;1.30;;
19456;SDS011;9867;48.094;11.478;2022-09-09T05:59:51;1.73;;;1.20;;
19456;SDS011;9867;48.094;11.478;2022-09-09T06:02:19;5.47;;;1.07;;
19456;SDS011;9867;48.094;11.478;2022-09-09T06:04:48;1.50;;;1.10;;
19456;SDS011;9867;48.094;11.478;2022-09-09T06:07:18;1.50;;;1.13;;
19456;SDS011;9867;48.094;11.478;2022-09-09T06:09:46;1.37;;;1.10;;
19456;SDS011;9867;48.094;11.478;2022-09-09T06:12:14;1.77;;;1.27;;
19456;SDS011;9867;48.094;11.478;2022-09-09T06:14:42;3.13;;;1.10;;
19456;SDS011;9867;48.094;11.478;2022-09-09T06:17:15;1.17;;;0.90;;
19456;SDS011;9867;48.094;11.478;2022-09-09T06:19:43;2.57;;;1.30;;
19456;SDS011;9867;48.094;11.478;2022-09-09T06:22:11;1.57;;;1.17;;
19456;SDS011;9867;48.094;11.478;2022-09-09T06:24:41;1.80;;;1.10;;
19456;SDS011;9867;48.094;11.478;2022-09-09T06:27:09;1.43;;;1.30;;
19456;SDS011;9867;48.094;11.478;2022-09-09T06:29:37;2.73;;;1.10;;
19456;SDS011;9867;48.094;11.478;2022-09-09T06:32:06;1.40;;;1.20;;
19456;SDS011;9867;48.094;11.478;2022-09-09T06:34:35;1.10;;;1.00;;
19456;SDS011;9867;48.094;11.478;2022-09-09T06:37:03;1.30;;;1.20;;
19456;SDS011;9867;48.094;11.478;2022-09-09T06:39:43;1.27;;;0.90;;
19456;SDS011;9867;48.094;11.478;2022-09-09T06:42:12;1.63;;;1.23;;
19456;SDS011;9867;48.094;11.478;2022-09-09T06:44:53;2.30;;;1.10;;
19456;SDS011;9867;48.094;11.478;2022-09-09T06:47:35;1.17;;;1.07;;
19456;SDS011;9867;48.094;11.478;2022-09-09T06:50:04;1.27;;;1.17;;
19456;SDS011;9867;48.094;11.478;2022-09-09T06:52:34;1.60;;;1.13;;
19456;SDS011;9867;48.094;11.478;2022-09-09T06:55:04;2.67;;;1.30;;
19456;SDS011;9867;48.094;11.478;2022-09-09T06:57:35;2.00;;;1.23;;
19456;SDS011;9867;48.094;11.478;2022-09-09T07:00:12;2.83;;;1.03;;
19456;SDS011;9867;48.094;11.478;2022-09-09T07:02:43;9.27;;;1.57;;
19456;SDS011;9867;48.094;11.478;2022-09-09T07:05:12;3.00;;;1.00;;
19456;SDS011;9867;48.094;11.478;2022-09-09T07:07:43;2.13;;;1.13;;
19456;SDS011;9867;48.094;11.478;2022-09-09T07:10:14;1.63;;;1.20;;
19456;SDS011;9867;48.094;11.478;2022-09-09T07:12:43;1.73;;;0.80;;
19456;SDS011;9867;48.094;11.478;2022-09-09T07:15:12;1.93;;;1.03;;
19456;SDS011;9867;48.094;11.478;2022-09-09T07:17:43;1.73;;;1.10;;
19456;SDS011;9867;48.094;11.478;2022-09-09T07:20:11;2.43;;;1.20;;
19456;SDS011;9867;48.094;11.478;2022-09-09T07:22:40;1.77;;;1.23;;
19456;SDS011;9867;48.094;11.478;2022-09-09T07:25:09;1.33;;;1.10;;
19456;SDS011;9867;48.094;11.478;2022-09-09T07:27:39;1.97;;;0.97;;
19456;SDS011;9867;48.094;11.478;2022-09-09T07:30:07;1.87;;;1.00;;
19456;SDS011;9867;48.094;11.478;2022-09-09T07:32:36;1.50;;;0.97;;
19456;SDS011;9867;48.094;11.478;2022-09-09T07:35:05;2.23;;;1.10;;
19456;SDS011;9867;48.094;11.478;2022-09-09T07:37:35;3.73;;;1.30;;
19456;SDS011;9867;48.094;11.478;2022-09-09T07:40:04;1.60;;;1.10;;
19456;SDS011;9867;48.094;11.478;2022-09-09T07:42:34;2.73;;;1.10;;
19456;SDS011;9867;48.094;11.478;2022-09-09T07:45:05;3.43;;;1.40;;
19456;SDS011;9867;48.094;11.478;2022-09-09T07:47:33;2.43;;;1.30;;
19456;SDS011;9867;48.094;11.478;2022-09-09T07:50:02;1.30;;;1.10;;
19456;SDS011;9867;48.094;11.478;2022-09-09T07:52:31;3.87;;;1.80;;
19456;SDS011;9867;48.094;11.478;2022-09-09T07:55:03;4.13;;;1.43;;
19456;SDS011;9867;48.094;11.478;2022-09-09T07:57:32;2.70;;;1.60;;
19456;SDS011;9867;48.094;11.478;2022-09-09T08:00:02;5.27;;;2.50;;
19456;SDS011;9867;48.094;11.478;2022-09-09T08:02:39;4.33;;;1.80;;
19456;SDS011;9867;48.094;11.478;2022-09-09T08:05:09;2.03;;;1.20;;
19456;SDS011;9867;48.094;11.478;2022-09-09T08:07:39;4.83;;;1.77;;
19456;SDS011;9867;48.094;11.478;2022-09-09T08:10:07;1.63;;;1.00;;
19456;SDS011;9867;48.094;11.478;2022-09-09T08:12:37;2.57;;;1.60;;
19456;SDS011;9867;48.094;11.478;2022-09-09T08:15:13;1.73;;;1.10;;
19456;SDS011;9867;48.094;11.478;2022-09-09T08:17:43;2.73;;;1.13;;
19456;SDS011;9867;48.094;11.478;2022-09-09T08:20:12;3.17;;;1.00;;
19456;SDS011;9867;48.094;11.478;2022-09-09T08:22:40;1.10;;;0.93;;
19456;SDS011;9867;48.094;11.478;2022-09-09T08:25:09;3.03;;;1.20;;
19456;SDS011;9867;48.094;11.478;2022-09-09T08:27:37;2.33;;;1.03;;
19456;SDS011;9867;48.094;11.478;2022-09-09T08:30:06;2.30;;;1.10;;
19456;SDS011;9867;48.094;11.478;2022-09-09T08:32:35;3.47;;;1.27;;
19456;SDS011;9867;48.094;11.478;2022-09-09T08:35:08;2.00;;;1.30;;
19456;SDS011;9867;48.094;11.478;2022-09-09T08:37:36;1.20;;;1.00;;
19456;SDS011;9867;48.094;11.478;2022-09-09T08:40:05;1.30;;;1.20;;
19456;SDS011;9867;48.094;11.478;2022-09-09T08:42:44;2.13;;;1.30;;
19456;SDS011;9867;48.094;11.478;2022-09-09T08:45:31;2.27;;;1.37;;
19456;SDS011;9867;48.094;11.478;2022-09-09T08:48:09;3.57;;;1.73;;
19456;SDS011;9867;48.094;11.478;2022-09-09T08:50:46;4.40;;;1.47;;
19456;SDS011;9867;48.094;11.478;2022-09-09T08:53:24;2.33;;;1.30;;
19456;SDS011;9867;48.094;11.478;2022-09-09T08:55:58;1.63;;;1.50;;
19456;SDS011;9867;48.094;11.478;2022-09-09T08:58:49;2.13;;;1.73;;
19456;SDS011;9867;48.094;11.478;2022-09-09T09:01:45;3.83;;;1.40;;
19456;SDS011;9867;48.094;11.478;2022-09-09T09:04:49;3.90;;;2.47;;
19456;SDS011;9867;48.094;11.478;2022-09-09T09:07:42;4.03;;;1.50;;
19456;SDS011;9867;48.094;11.478;2022-09-09T09:10:33;1.57;;;1.13;;
19456;SDS011;9867;48.094;11.478;2022-09-09T09:13:15;2.70;;;1.80;;
19456;SDS011;9867;48.094;11.478;2022-09-09T09:15:49;3.47;;;1.67;;
19456;SDS011;9867;48.094;11.478;2022-09-09T09:18:21;2.57;;;1.47;;
19456;SDS011;9867;48.094;11.478;2022-09-09T09:20:50;4.53;;;1.37;;
19456;SDS011;9867;48.094;11.478;2022-09-09T09:23:29;1.83;;;1.33;;
19456;SDS011;9867;48.094;11.478;2022-09-09T09:26:07;2.40;;;1.50;;
19456;SDS011;9867;48.094;11.478;2022-09-09T09:28:39;3.50;;;1.57;;
19456;SDS011;9867;48.094;11.478;2022-09-09T09:31:14;1.10;;;1.00;;
19456;SDS011;9867;48.094;11.478;2022-09-09T09:33:47;2.97;;;1.43;;
19456;SDS011;9867;48.094;11.478;2022-09-09T09:36:19;1.80;;;1.27;;
19456;SDS011;9867;48.094;11.478;2022-09-09T09:38:53;2.20;;;1.33;;
19456;SDS011;9867;48.094;11.478;2022-09-09T09:41:43;1.30;;;1.20;;
19456;SDS011;9867;48.094;11.478;2022-09-09T09:44:23;3.73;;;1.40;;
19456;SDS011;9867;48.094;11.478;2022-09-09T09:47:06;1.00;;;0.90;;
19456;SDS011;9867;48.094;11.478;2022-09-09T09:49:36;1.43;;;1.10;;
19456;SDS011;9867;48.094;11.478;2022-09-09T09:52:04;1.87;;;1.30;;
19456;SDS011;9867;48.094;11.478;2022-09-09T09:54:38;1.40;;;1.30;;
19456;SDS011;9867;48.094;11.478;2022-09-09T09:57:09;3.77;;;1.40;;
19456;SDS011;9867;48.094;11.478;2022-09-09T09:59:40;1.87;;;1.00;;
19456;SDS011;9867;48.094;11.478;2022-09-09T10:02:24;1.40;;;1.10;;
19456;SDS011;9867;48.094;11.478;2022-09-09T10:05:01;2.93;;;1.30;;
19456;SDS011;9867;48.094;11.478;2022-09-09T10:07:32;2.23;;;1.10;;
19456;SDS011;9867;48.094;11.478;2022-09-09T10:10:08;3.03;;;1.47;;
19456;SDS011;9867;48.094;11.478;2022-09-09T10:12:44;2.23;;;1.30;;
19456;SDS011;9867;48.094;11.478;2022-09-09T10:15:28;1.43;;;1.27;;
19456;SDS011;9867;48.094;11.478;2022-09-09T10:18:08;2.47;;;1.13;;
19456;SDS011;9867;48.094;11.478;2022-09-09T10:20:51;1.00;;;0.80;;
19456;SDS011;9867;48.094;11.478;2022-09-09T10:23:31;1.10;;;1.00;;
19456;SDS011;9867;48.094;11.478;2022-09-09T10:26:22;2.37;;;1.20;;
19456;SDS011;9867;48.094;11.478;2022-09-09T10:29:11;1.50;;;1.17;;
19456;SDS011;9867;48.094;11.478;2022-09-09T10:31:53;1.70;;;1.10;;
19456;SDS011;9867;48.094;11.478;2022-09-09T10:34:39;1.30;;;1.20;;
19456;SDS011;9867;48.094;11.478;2022-09-09T10:37:21;3.13;;;1.50;;
19456;SDS011;9867;48.094;11.478;2022-09-09T10:40:05;1.50;;;1.00;;
19456;SDS011;9867;48.094;11.478;2022-09-09T10:42:54;1.40;;;1.03;;
19456;SDS011;9867;48.094;11.478;2022-09-09T10:45:28;2.23;;;0.90;;
19456;SDS011;9867;48.094;11.478;2022-09-09T10:48:16;1.53;;;1.00;;
19456;SDS011;9867;48.094;11.478;2022-09-09T10:51:12;3.37;;;2.40;;
19456;SDS011;9867;48.094;11.478;2022-09-09T10:53:56;2.40;;;1.87;;
19456;SDS011;9867;48.094;11.478;2022-09-09T10:56:35;1.53;;;1.43;;
19456;SDS011;9867;48.094;11.478;2022-09-09T10:59:09;2.10;;;1.10;;
19456;SDS011;9867;48.094;11.478;2022-09-09T11:01:43;1.23;;;0.90;;
19456;SDS011;9867;48.094;11.478;2022-09-09T11:04:15;1.07;;;0.97;;
19456;SDS011;9867;48.094;11.478;2022-09-09T11:06:48;1.23;;;1.10;;
19456;SDS011;9867;48.094;11.478;2022-09-09T11:09:20;1.80;;;1.07;;
19456;SDS011;9867;48.094;11.478;2022-09-09T11:11:52;1.83;;;0.90;;
19456;SDS011;9867;48.094;11.478;2022-09-09T11:14:26;2.60;;;0.87;;
19456;SDS011;9867;48.094;11.478;2022-09-09T11:17:03;1.57;;;1.03;;
19456;SDS011;9867;48.094;11.478;2022-09-09T11:19:37;0.90;;;0.70;;
19456;SDS011;9867;48.094;11.478;2022-09-09T11:22:08;1.83;;;1.60;;
19456;SDS011;9867;48.094;11.478;2022-09-09T11:24:47;2.57;;;1.47;;
19456;SDS011;9867;48.094;11.478;2022-09-09T11:27:21;1.33;;;1.23;;
19456;SDS011;9867;48.094;11.478;2022-09-09T11:30:02;1.33;;;0.93;;
19456;SDS011;9867;48.094;11.478;2022-09-09T11:33:06;1.33;;;0.80;;
19456;SDS011;9867;48.094;11.478;2022-09-09T11:35:51;1.37;;;0.87;;
19456;SDS011;9867;48.094;11.478;2022-09-09T11:38:34;1.40;;;0.73;;
19456;SDS011;9867;48.094;11.478;2022-09-09T11:41:11;1.63;;;0.80;;
19456;SDS011;9867;48.094;11.478;2022-09-09T11:43:47;0.83;;;0.80;;
19456;SDS011;9867;48.094;11.478;2022-09-09T11:46:19;0.90;;;0.90;;
19456;SDS011;9867;48.094;11.478;2022-09-09T11:48:57;0.67;;;0.60;;
19456;SDS011;9867;48.094;11.478;2022-09-09T11:51:27;1.03;;;0.90;;
19456;SDS011;9867;48.094;11.478;2022-09-09T11:53:57;1.27;;;0.87;;
19456;SDS011;9867;48.094;11.478;2022-09-09T11:56:28;0.80;;;0.70;;
19456;SDS011;9867;48.094;11.478;2022-09-09T11:58:59;3.37;;;0.87;;
19456;SDS011;9867;48.094;11.478;2022-09-09T12:01:41;1.47;;;0.70;;
19456;SDS011;9867;48.094;11.478;2022-09-09T12:06:58;0.93;;;0.70;;
19456;SDS011;9867;48.094;11.478;2022-09-09T12:09:33;1.00;;;0.67;;
19456;SDS011;9867;48.094;11.478;2022-09-09T12:12:21;1.80;;;0.97;;
19456;SDS011;9867;48.094;11.478;2022-09-09T12:14:56;0.93;;;0.73;;
19456;SDS011;9867;48.094;11.478;2022-09-09T12:17:29;1.63;;;0.70;;
19456;SDS011;9867;48.094;11.478;2022-09-09T12:20:02;1.00;;;0.90;;
19456;SDS011;9867;48.094;11.478;2022-09-09T12:22:38;2.63;;;1.33;;
19456;SDS011;9867;48.094;11.478;2022-09-09T12:25:19;1.53;;;1.20;;
19456;SDS011;9867;48.094;11.478;2022-09-09T12:27:58;2.50;;;1.10;;
19456;SDS011;9867;48.094;11.478;2022-09-09T12:30:34;1.30;;;1.00;;
19456;SDS011;9867;48.094;11.478;2022-09-09T12:33:17;0.97;;;0.80;;
19456;SDS011;9867;48.094;11.478;2022-09-09T12:35:48;1.70;;;0.97;;
19456;SDS011;9867;48.094;11.478;2022-09-09T12:38:22;2.37;;;0.80;;
19456;SDS011;9867;48.094;11.478;2022-09-09T12:40:59;1.43;;;0.90;;
19456;SDS011;9867;48.094;11.478;2022-09-09T12:43:27;3.30;;;0.80;;
19456;SDS011;9867;48.094;11.478;2022-09-09T12:45:56;2.80;;;0.97;;
19456;SDS011;9867;48.094;11.478;2022-09-09T12:48:31;1.40;;;1.00;;
19456;SDS011;9867;48.094;11.478;2022-09-09T12:51:03;1.77;;;1.00;;
19456;SDS011;9867;48.094;11.478;2022-09-09T12:53:35;2.17;;;0.77;;
19456;SDS011;9867;48.094;11.478;2022-09-09T12:56:06;0.63;;;0.50;;
19456;SDS011;9867;48.094;11.478;2022-09-09T12:58:36;1.57;;;0.70;;
19456;SDS011;9867;48.094;11.478;2022-09-09T13:01:06;1.90;;;0.77;;
19456;SDS011;9867;48.094;11.478;2022-09-09T13:03:48;0.70;;;0.70;;
19456;SDS011;9867;48.094;11.478;2022-09-09T13:06:18;3.87;;;0.63;;
19456;SDS011;9867;48.094;11.478;2022-09-09T13:08:54;2.07;;;1.00;;
19456;SDS011;9867;48.094;11.478;2022-09-09T13:11:25;1.57;;;0.93;;
19456;SDS011;9867;48.094;11.478;2022-09-09T13:13:57;2.40;;;0.80;;
19456;SDS011;9867;48.094;11.478;2022-09-09T13:16:26;1.03;;;0.67;;
19456;SDS011;9867;48.094;11.478;2022-09-09T13:18:59;0.77;;;0.50;;
19456;SDS011;9867;48.094;11.478;2022-09-09T13:21:32;1.97;;;1.00;;
19456;SDS011;9867;48.094;11.478;2022-09-09T13:24:01;0.90;;;0.70;;
19456;SDS011;9867;48.094;11.478;2022-09-09T13:26:31;1.13;;;0.50;;
19456;SDS011;9867;48.094;11.478;2022-09-09T13:29:09;0.60;;;0.50;;
19456;SDS011;9867;48.094;11.478;2022-09-09T13:31:45;0.95;;;0.70;;
19456;SDS011;9867;48.094;11.478;2022-09-09T13:34:25;0.67;;;0.50;;
19456;SDS011;9867;48.094;11.478;2022-09-09T13:36:55;0.70;;;0.70;;
19456;SDS011;9867;48.094;11.478;2022-09-09T13:39:27;0.83;;;0.60;;
19456;SDS011;9867;48.094;11.478;2022-09-09T13:41:56;0.80;;;0.50;;
19456;SDS011;9867;48.094;11.478;2022-09-09T13:44:25;0.93;;;0.60;;
19456;SDS011;9867;48.094;11.478;2022-09-09T13:47:02;1.30;;;0.80;;
19456;SDS011;9867;48.094;11.478;2022-09-09T13:49:37;0.63;;;0.60;;
19456;SDS011;9867;48.094;11.478;2022-09-09T13:52:08;1.00;;;0.67;;
19456;SDS011;9867;48.094;11.478;2022-09-09T13:54:38;1.43;;;0.80;;
19456;SDS011;9867;48.094;11.478;2022-09-09T13:57:11;1.50;;;0.80;;
19456;SDS011;9867;48.094;11.478;2022-09-09T13:59:43;1.63;;;1.53;;
19456;SDS011;9867;48.094;11.478;2022-09-09T14:02:31;1.20;;;1.10;;
19456;SDS011;9867;48.094;11.478;2022-09-09T14:05:01;1.13;;;0.90;;
19456;SDS011;9867;48.094;11.478;2022-09-09T14:07:29;1.63;;;0.60;;
19456;SDS011;9867;48.094;11.478;2022-09-09T14:09:58;1.83;;;0.50;;
19456;SDS011;9867;48.094;11.478;2022-09-09T14:12:26;1.03;;;0.67;;
19456;SDS011;9867;48.094;11.478;2022-09-09T14:14:55;1.20;;;0.87;;
19456;SDS011;9867;48.094;11.478;2022-09-09T14:17:22;0.93;;;0.87;;
19456;SDS011;9867;48.094;11.478;2022-09-09T14:19:51;2.13;;;1.10;;
19456;SDS011;9867;48.094;11.478;2022-09-09T14:22:20;2.13;;;0.70;;
19456;SDS011;9867;48.094;11.478;2022-09-09T14:24:48;2.53;;;1.03;;
19456;SDS011;9867;48.094;11.478;2022-09-09T14:27:16;1.17;;;0.73;;
19456;SDS011;9867;48.094;11.478;2022-09-09T14:29:45;1.50;;;0.77;;
19456;SDS011;9867;48.094;11.478;2022-09-09T14:32:12;0.97;;;0.60;;
19456;SDS011;9867;48.094;11.478;2022-09-09T14:34:40;1.27;;;0.70;;
19456;SDS011;9867;48.094;11.478;2022-09-09T14:37:08;1.63;;;0.90;;
19456;SDS011;9867;48.094;11.478;2022-09-09T14:39:37;1.07;;;0.60;;
19456;SDS011;9867;48.094;11.478;2022-09-09T14:42:05;0.93;;;0.70;;
19456;SDS011;9867;48.094;11.478;2022-09-09T14:44:33;1.57;;;0.93;;
19456;SDS011;9867;48.094;11.478;2022-09-09T14:47:02;2.03;;;0.80;;
19456;SDS011;9867;48.094;11.478;2022-09-09T14:49:29;1.87;;;0.80;;
19456;SDS011;9867;48.094;11.478;2022-09-09T14:51:57;1.87;;;0.70;;
19456;SDS011;9867;48.094;11.478;2022-09-09T14:54:25;1.67;;;0.83;;
19456;SDS011;9867;48.094;11.478;2022-09-09T14:56:55;3.00;;;1.00;;
19456;SDS011;9867;48.094;11.478;2022-09-09T14:59:24;0.83;;;0.73;;
19456;SDS011;9867;48.094;11.478;2022-09-09T15:01:53;2.00;;;0.90;;
19456;SDS011;9867;48.094;11.478;2022-09-09T15:04:21;2.53;;;0.77;;
19456;SDS011;9867;48.094;11.478;2022-09-09T15:06:49;2.43;;;0.90;;
19456;SDS011;9867;48.094;11.478;2022-09-09T15:09:18;2.57;;;0.80;;
19456;SDS011;9867;48.094;11.478;2022-09-09T15:11:46;0.70;;;0.70;;
19456;SDS011;9867;48.094;11.478;2022-09-09T15:14:15;1.93;;;1.10;;
19456;SDS011;9867;48.094;11.478;2022-09-09T15:16:50;0.83;;;0.80;;
19456;SDS011;9867;48.094;11.478;2022-09-09T15:19:18;2.07;;;0.80;;
19456;SDS011;9867;48.094;11.478;2022-09-09T15:21:46;2.03;;;1.17;;
19456;SDS011;9867;48.094;11.478;2022-09-09T15:24:14;4.70;;;3.03;;
19456;SDS011;9867;48.094;11.478;2022-09-09T15:26:43;2.87;;;2.47;;
19456;SDS011;9867;48.094;11.478;2022-09-09T15:29:11;2.47;;;1.90;;